sensor_id;sensor_type;location;lat;lon;timestamp;pressure;altitude;pressure_sealevel;temperature;humidity
38900;BME280;24660;43.238;26.576;2022-08-18T00:00:46;98805.06;;;23.94;64.23
38900;BME280;24660;43.238;26.576;2022-08-18T00:03:12;98801.41;;;23.82;65.62
38900;BME280;24660;43.238;26.576;2022-08-18T00:05:38;98801.41;;;23.82;66.37
38900;BME280;24660;43.238;26.576;2022-08-18T00:08:04;98801.91;;;23.72;66.73
38900;BME280;24660;43.238;26.576;2022-08-18T00:10:30;98803.31;;;23.99;63.59
38900;BME280;24660;43.238;26.576;2022-08-18T00:12:57;98803.78;;;24.15;63.83
38900;BME280;24660;43.238;26.576;2022-08-18T00:15:23;98810.22;;;24.02;64.78
38900;BME280;24660;43.238;26.576;2022-08-18T00:17:49;98809.28;;;23.90;65.01
38900;BME280;24660;43.238;26.576;2022-08-18T00:20:19;98799.09;;;23.79;65.69
38900;BME280;24660;43.238;26.576;2022-08-18T00:22:45;98803.81;;;23.72;65.60
38900;BME280;24660;43.238;26.576;2022-08-18T00:25:13;98807.25;;;23.60;66.52
38900;BME280;24660;43.238;26.576;2022-08-18T00:27:39;98805.66;;;23.46;67.34
38900;BME280;24660;43.238;26.576;2022-08-18T00:30:10;98814.84;;;23.58;67.17
38900;BME280;24660;43.238;26.576;2022-08-18T00:32:38;98815.44;;;23.85;66.60
38900;BME280;24660;43.238;26.576;2022-08-18T00:35:10;98819.00;;;23.86;66.31
38900;BME280;24660;43.238;26.576;2022-08-18T00:37:38;98814.88;;;23.52;67.81
38900;BME280;24660;43.238;26.576;2022-08-18T00:40:04;98810.44;;;23.57;68.24
38900;BME280;24660;43.238;26.576;2022-08-18T00:42:42;98810.41;;;23.32;69.57
38900;BME280;24660;43.238;26.576;2022-08-18T00:45:12;98802.16;;;23.14;70.73
38900;BME280;24660;43.238;26.576;2022-08-18T00:47:38;98795.69;;;23.08;70.23
38900;BME280;24660;43.238;26.576;2022-08-18T00:50:05;98806.28;;;23.23;68.78
38900;BME280;24660;43.238;26.576;2022-08-18T00:52:31;98807.53;;;23.21;68.84
38900;BME280;24660;43.238;26.576;2022-08-18T00:54:58;98812.16;;;23.20;68.73
38900;BME280;24660;43.238;26.576;2022-08-18T00:57:30;98809.41;;;23.27;67.65
38900;BME280;24660;43.238;26.576;2022-08-18T00:59:59;98810.59;;;23.37;67.71
38900;BME280;24660;43.238;26.576;2022-08-18T01:02:37;98813.41;;;23.49;67.23
38900;BME280;24660;43.238;26.576;2022-08-18T01:05:09;98823.16;;;23.38;67.38
38900;BME280;24660;43.238;26.576;2022-08-18T01:07:39;98811.53;;;23.25;67.95
38900;BME280;24660;43.238;26.576;2022-08-18T01:10:10;98814.88;;;23.20;68.70
38900;BME280;24660;43.238;26.576;2022-08-18T01:12:40;98818.72;;;23.13;68.98
38900;BME280;24660;43.238;26.576;2022-08-18T01:15:06;98821.81;;;23.23;68.82
38900;BME280;24660;43.238;26.576;2022-08-18T01:17:32;98813.97;;;23.33;68.31
38900;BME280;24660;43.238;26.576;2022-08-18T01:20:18;98819.94;;;23.17;68.50
38900;BME280;24660;43.238;26.576;2022-08-18T01:23:03;98814.38;;;23.05;69.15
38900;BME280;24660;43.238;26.576;2022-08-18T01:25:33;98809.75;;;23.05;69.25
38900;BME280;24660;43.238;26.576;2022-08-18T01:28:15;98810.25;;;23.21;68.10
38900;BME280;24660;43.238;26.576;2022-08-18T01:30:47;98813.69;;;23.41;68.08
38900;BME280;24660;43.238;26.576;2022-08-18T01:33:14;98814.06;;;23.20;68.59
38900;BME280;24660;43.238;26.576;2022-08-18T01:35:46;98818.53;;;23.39;67.14
38900;BME280;24660;43.238;26.576;2022-08-18T01:38:15;98811.84;;;23.35;66.63
38900;BME280;24660;43.238;26.576;2022-08-18T01:40:43;98810.84;;;23.29;67.95
38900;BME280;24660;43.238;26.576;2022-08-18T01:43:09;98818.25;;;23.47;66.90
38900;BME280;24660;43.238;26.576;2022-08-18T01:45:36;98832.00;;;23.65;65.86
38900;BME280;24660;43.238;26.576;2022-08-18T01:48:02;98831.13;;;23.40;66.52
38900;BME280;24660;43.238;26.576;2022-08-18T01:50:32;98829.31;;;23.59;66.58
38900;BME280;24660;43.238;26.576;2022-08-18T01:52:59;98824.50;;;23.54;65.94
38900;BME280;24660;43.238;26.576;2022-08-18T01:55:26;98826.84;;;23.51;66.42
38900;BME280;24660;43.238;26.576;2022-08-18T01:57:53;98820.09;;;23.28;66.52
38900;BME280;24660;43.238;26.576;2022-08-18T02:00:19;98813.50;;;23.36;66.46
38900;BME280;24660;43.238;26.576;2022-08-18T02:02:48;98826.63;;;23.21;66.98
38900;BME280;24660;43.238;26.576;2022-08-18T02:05:21;98817.81;;;23.25;67.39
38900;BME280;24660;43.238;26.576;2022-08-18T02:07:49;98822.94;;;23.40;66.68
38900;BME280;24660;43.238;26.576;2022-08-18T02:10:14;98823.72;;;23.16;67.38
38900;BME280;24660;43.238;26.576;2022-08-18T02:12:42;98820.94;;;23.22;67.08
38900;BME280;24660;43.238;26.576;2022-08-18T02:15:08;98829.38;;;23.46;65.89
38900;BME280;24660;43.238;26.576;2022-08-18T02:17:37;98827.50;;;23.46;66.23
38900;BME280;24660;43.238;26.576;2022-08-18T02:20:05;98835.31;;;23.36;67.52
38900;BME280;24660;43.238;26.576;2022-08-18T02:22:30;98830.53;;;23.31;68.11
38900;BME280;24660;43.238;26.576;2022-08-18T02:24:56;98831.59;;;23.30;67.59
38900;BME280;24660;43.238;26.576;2022-08-18T02:27:22;98838.13;;;23.29;68.18
38900;BME280;24660;43.238;26.576;2022-08-18T02:29:47;98839.44;;;23.20;68.48
38900;BME280;24660;43.238;26.576;2022-08-18T02:32:13;98839.09;;;23.10;68.99
38900;BME280;24660;43.238;26.576;2022-08-18T02:34:39;98835.41;;;22.91;69.90
38900;BME280;24660;43.238;26.576;2022-08-18T02:37:06;98843.63;;;22.85;70.60
38900;BME280;24660;43.238;26.576;2022-08-18T02:39:34;98837.00;;;22.67;71.13
38900;BME280;24660;43.238;26.576;2022-08-18T02:42:03;98842.63;;;22.66;71.38
38900;BME280;24660;43.238;26.576;2022-08-18T02:44:29;98844.00;;;22.43;72.15
38900;BME280;24660;43.238;26.576;2022-08-18T02:46:56;98839.59;;;22.36;72.39
38900;BME280;24660;43.238;26.576;2022-08-18T02:49:25;98847.72;;;22.49;72.32
38900;BME280;24660;43.238;26.576;2022-08-18T02:51:53;98842.38;;;22.29;73.20
38900;BME280;24660;43.238;26.576;2022-08-18T02:54:21;98852.06;;;22.12;74.38
38900;BME280;24660;43.238;26.576;2022-08-18T02:56:48;98861.41;;;22.29;73.46
38900;BME280;24660;43.238;26.576;2022-08-18T02:59:20;98861.84;;;22.26;73.36
38900;BME280;24660;43.238;26.576;2022-08-18T03:01:48;98862.91;;;22.25;73.10
38900;BME280;24660;43.238;26.576;2022-08-18T03:04:18;98856.00;;;22.16;73.32
38900;BME280;24660;43.238;26.576;2022-08-18T03:06:45;98866.03;;;22.22;73.04
38900;BME280;24660;43.238;26.576;2022-08-18T03:09:13;98861.88;;;22.13;73.81
38900;BME280;24660;43.238;26.576;2022-08-18T03:11:39;98861.44;;;22.09;73.93
38900;BME280;24660;43.238;26.576;2022-08-18T03:14:05;98866.00;;;22.35;72.72
38900;BME280;24660;43.238;26.576;2022-08-18T03:16:32;98867.44;;;22.38;71.77
38900;BME280;24660;43.238;26.576;2022-08-18T03:18:59;98876.72;;;22.17;72.98
38900;BME280;24660;43.238;26.576;2022-08-18T03:21:28;98870.44;;;22.23;72.51
38900;BME280;24660;43.238;26.576;2022-08-18T03:23:54;98866.25;;;22.27;72.38
38900;BME280;24660;43.238;26.576;2022-08-18T03:26:21;98875.00;;;22.36;71.72
38900;BME280;24660;43.238;26.576;2022-08-18T03:28:49;98871.44;;;22.35;71.85
38900;BME280;24660;43.238;26.576;2022-08-18T03:31:16;98879.22;;;22.32;72.09
38900;BME280;24660;43.238;26.576;2022-08-18T03:33:45;98883.59;;;22.33;72.54
38900;BME280;24660;43.238;26.576;2022-08-18T03:36:15;98881.03;;;22.51;71.65
38900;BME280;24660;43.238;26.576;2022-08-18T03:38:42;98881.47;;;22.55;71.07
38900;BME280;24660;43.238;26.576;2022-08-18T03:41:10;98881.69;;;22.46;72.08
38900;BME280;24660;43.238;26.576;2022-08-18T03:43:36;98879.97;;;22.52;71.24
38900;BME280;24660;43.238;26.576;2022-08-18T03:46:04;98877.69;;;22.56;71.49
38900;BME280;24660;43.238;26.576;2022-08-18T03:48:31;98872.91;;;22.44;71.78
38900;BME280;24660;43.238;26.576;2022-08-18T03:51:07;98881.06;;;22.44;72.52
38900;BME280;24660;43.238;26.576;2022-08-18T03:53:34;98885.69;;;22.44;72.70
38900;BME280;24660;43.238;26.576;2022-08-18T03:56:00;98884.19;;;22.55;72.11
38900;BME280;24660;43.238;26.576;2022-08-18T03:58:26;98885.63;;;22.57;71.98
38900;BME280;24660;43.238;26.576;2022-08-18T04:00:52;98901.19;;;22.43;72.18
38900;BME280;24660;43.238;26.576;2022-08-18T04:03:18;98891.88;;;22.64;70.79
38900;BME280;24660;43.238;26.576;2022-08-18T04:05:43;98896.47;;;22.84;70.88
38900;BME280;24660;43.238;26.576;2022-08-18T04:08:09;98899.72;;;23.05;69.92
38900;BME280;24660;43.238;26.576;2022-08-18T04:10:35;98900.78;;;23.36;69.25
38900;BME280;24660;43.238;26.576;2022-08-18T04:13:01;98905.16;;;23.05;69.68
38900;BME280;24660;43.238;26.576;2022-08-18T04:15:30;98913.03;;;23.27;69.43
38900;BME280;24660;43.238;26.576;2022-08-18T04:18:00;98910.31;;;23.27;69.01
38900;BME280;24660;43.238;26.576;2022-08-18T04:20:29;98911.66;;;23.43;68.51
38900;BME280;24660;43.238;26.576;2022-08-18T04:22:56;98919.31;;;23.65;67.17
38900;BME280;24660;43.238;26.576;2022-08-18T04:25:22;98916.53;;;23.97;66.55
38900;BME280;24660;43.238;26.576;2022-08-18T04:27:48;98926.75;;;24.08;66.81
38900;BME280;24660;43.238;26.576;2022-08-18T04:30:13;98925.59;;;23.91;67.00
38900;BME280;24660;43.238;26.576;2022-08-18T04:32:39;98927.66;;;23.71;68.18
38900;BME280;24660;43.238;26.576;2022-08-18T04:35:05;98928.81;;;23.50;68.40
38900;BME280;24660;43.238;26.576;2022-08-18T04:37:31;98928.25;;;23.79;67.82
38900;BME280;24660;43.238;26.576;2022-08-18T04:39:57;98927.66;;;23.71;67.54
38900;BME280;24660;43.238;26.576;2022-08-18T04:42:24;98925.78;;;23.96;67.40
38900;BME280;24660;43.238;26.576;2022-08-18T04:44:49;98927.63;;;24.02;67.62
38900;BME280;24660;43.238;26.576;2022-08-18T04:47:16;98934.97;;;24.26;66.47
38900;BME280;24660;43.238;26.576;2022-08-18T04:49:41;98932.66;;;24.30;65.59
38900;BME280;24660;43.238;26.576;2022-08-18T04:52:11;98933.44;;;24.55;65.46
38900;BME280;24660;43.238;26.576;2022-08-18T04:54:52;98934.28;;;24.74;65.29
38900;BME280;24660;43.238;26.576;2022-08-18T04:57:18;98939.97;;;24.54;65.45
38900;BME280;24660;43.238;26.576;2022-08-18T04:59:46;98950.38;;;24.82;65.12
38900;BME280;24660;43.238;26.576;2022-08-18T05:02:13;98948.09;;;24.98;65.19
38900;BME280;24660;43.238;26.576;2022-08-18T05:04:41;98934.66;;;24.96;66.05
38900;BME280;24660;43.238;26.576;2022-08-18T05:07:12;98944.63;;;25.09;65.63
38900;BME280;24660;43.238;26.576;2022-08-18T05:09:39;98942.91;;;25.26;64.36
38900;BME280;24660;43.238;26.576;2022-08-18T05:12:08;98941.94;;;25.51;63.35
38900;BME280;24660;43.238;26.576;2022-08-18T05:14:34;98950.34;;;25.37;63.45
38900;BME280;24660;43.238;26.576;2022-08-18T05:17:01;98951.78;;;25.40;63.80
38900;BME280;24660;43.238;26.576;2022-08-18T05:19:27;98937.44;;;25.56;62.65
38900;BME280;24660;43.238;26.576;2022-08-18T05:21:55;98941.56;;;25.17;63.39
38900;BME280;24660;43.238;26.576;2022-08-18T05:24:21;98941.41;;;24.94;65.03
38900;BME280;24660;43.238;26.576;2022-08-18T05:26:50;98943.53;;;25.28;64.71
38900;BME280;24660;43.238;26.576;2022-08-18T05:29:17;98943.84;;;24.65;66.26
38900;BME280;24660;43.238;26.576;2022-08-18T05:31:43;98955.38;;;24.85;65.64
38900;BME280;24660;43.238;26.576;2022-08-18T05:34:09;98954.94;;;24.88;65.13
38900;BME280;24660;43.238;26.576;2022-08-18T05:36:55;98954.56;;;25.52;64.40
38900;BME280;24660;43.238;26.576;2022-08-18T05:39:41;98953.63;;;25.58;64.28
38900;BME280;24660;43.238;26.576;2022-08-18T05:42:14;98953.88;;;25.98;62.34
38900;BME280;24660;43.238;26.576;2022-08-18T05:44:48;98960.88;;;25.82;63.60
38900;BME280;24660;43.238;26.576;2022-08-18T05:47:29;98957.81;;;25.90;62.65
38900;BME280;24660;43.238;26.576;2022-08-18T05:50:01;98958.97;;;26.48;61.16
38900;BME280;24660;43.238;26.576;2022-08-18T05:52:35;98955.69;;;26.74;60.41
38900;BME280;24660;43.238;26.576;2022-08-18T05:55:08;98949.84;;;26.82;60.14
38900;BME280;24660;43.238;26.576;2022-08-18T05:57:56;98953.09;;;27.03;59.52
38900;BME280;24660;43.238;26.576;2022-08-18T06:00:24;98959.16;;;27.05;59.30
38900;BME280;24660;43.238;26.576;2022-08-18T06:02:56;98955.16;;;27.24;58.79
38900;BME280;24660;43.238;26.576;2022-08-18T06:05:29;98953.28;;;27.41;58.44
38900;BME280;24660;43.238;26.576;2022-08-18T06:08:02;98961.56;;;27.58;57.73
38900;BME280;24660;43.238;26.576;2022-08-18T06:10:31;98967.16;;;27.92;56.64
38900;BME280;24660;43.238;26.576;2022-08-18T06:12:59;98969.25;;;28.01;57.96
38900;BME280;24660;43.238;26.576;2022-08-18T06:21:00;98971.19;;;27.72;55.68
38900;BME280;24660;43.238;26.576;2022-08-18T06:26:07;98979.22;;;27.34;56.11
38900;BME280;24660;43.238;26.576;2022-08-18T06:31:19;98965.22;;;27.07;57.30
38900;BME280;24660;43.238;26.576;2022-08-18T06:34:09;98968.03;;;27.64;56.92
38900;BME280;24660;43.238;26.576;2022-08-18T06:36:53;98968.69;;;28.16;54.53
38900;BME280;24660;43.238;26.576;2022-08-18T06:39:34;98966.84;;;27.88;54.99
38900;BME280;24660;43.238;26.576;2022-08-18T06:42:00;98964.31;;;27.87;54.94
38900;BME280;24660;43.238;26.576;2022-08-18T06:44:38;98963.94;;;28.28;53.76
38900;BME280;24660;43.238;26.576;2022-08-18T06:50:23;98966.94;;;28.82;52.76
38900;BME280;24660;43.238;26.576;2022-08-18T06:52:56;98977.81;;;29.33;51.72
38900;BME280;24660;43.238;26.576;2022-08-18T06:55:41;98974.56;;;28.75;52.20
38900;BME280;24660;43.238;26.576;2022-08-18T07:00:56;98974.47;;;29.09;51.76
38900;BME280;24660;43.238;26.576;2022-08-18T07:03:42;98973.41;;;29.10;51.68
38900;BME280;24660;43.238;26.576;2022-08-18T07:06:23;98973.84;;;29.23;51.89
38900;BME280;24660;43.238;26.576;2022-08-18T07:08:52;98978.66;;;29.33;50.85
38900;BME280;24660;43.238;26.576;2022-08-18T07:11:29;98978.50;;;29.23;50.67
38900;BME280;24660;43.238;26.576;2022-08-18T07:13:58;98966.59;;;29.39;50.96
38900;BME280;24660;43.238;26.576;2022-08-18T07:16:36;98967.84;;;29.48;51.29
38900;BME280;24660;43.238;26.576;2022-08-18T07:19:11;98965.44;;;29.84;49.84
38900;BME280;24660;43.238;26.576;2022-08-18T07:21:38;98966.28;;;29.58;50.25
38900;BME280;24660;43.238;26.576;2022-08-18T07:24:10;98967.31;;;29.51;49.85
38900;BME280;24660;43.238;26.576;2022-08-18T07:27:01;98959.81;;;30.01;49.34
38900;BME280;24660;43.238;26.576;2022-08-18T07:29:29;98953.88;;;30.46;49.47
38900;BME280;24660;43.238;26.576;2022-08-18T07:32:00;98960.31;;;30.62;48.66
38900;BME280;24660;43.238;26.576;2022-08-18T07:34:35;98952.06;;;29.44;50.85
38900;BME280;24660;43.238;26.576;2022-08-18T07:37:07;98955.16;;;30.33;49.18
38900;BME280;24660;43.238;26.576;2022-08-18T07:39:54;98956.84;;;30.77;48.68
38900;BME280;24660;43.238;26.576;2022-08-18T07:44:59;98958.06;;;30.17;49.31
38900;BME280;24660;43.238;26.576;2022-08-18T07:47:34;98964.34;;;30.49;48.40
38900;BME280;24660;43.238;26.576;2022-08-18T07:50:05;98967.59;;;30.78;47.48
38900;BME280;24660;43.238;26.576;2022-08-18T07:52:37;98974.47;;;31.23;46.35
38900;BME280;24660;43.238;26.576;2022-08-18T07:57:55;98975.06;;;31.35;45.72
38900;BME280;24660;43.238;26.576;2022-08-18T08:03:30;98965.56;;;31.11;45.70
38900;BME280;24660;43.238;26.576;2022-08-18T08:06:18;98968.53;;;31.61;45.51
38900;BME280;24660;43.238;26.576;2022-08-18T08:12:03;98976.34;;;31.90;44.69
38900;BME280;24660;43.238;26.576;2022-08-18T08:14:45;98969.72;;;31.91;43.97
38900;BME280;24660;43.238;26.576;2022-08-18T08:17:35;98961.16;;;32.18;42.89
38900;BME280;24660;43.238;26.576;2022-08-18T08:20:24;98968.28;;;31.68;44.23
38900;BME280;24660;43.238;26.576;2022-08-18T08:23:10;98966.69;;;32.18;43.86
38900;BME280;24660;43.238;26.576;2022-08-18T08:31:12;98973.56;;;32.87;42.06
38900;BME280;24660;43.238;26.576;2022-08-18T08:33:47;98971.38;;;32.84;43.49
38900;BME280;24660;43.238;26.576;2022-08-18T08:36:23;98968.56;;;32.94;42.70
38900;BME280;24660;43.238;26.576;2022-08-18T08:38:55;98969.09;;;33.01;42.16
38900;BME280;24660;43.238;26.576;2022-08-18T08:41:31;98971.56;;;33.02;40.99
38900;BME280;24660;43.238;26.576;2022-08-18T08:44:06;98969.94;;;32.91;42.05
38900;BME280;24660;43.238;26.576;2022-08-18T08:46:48;98977.09;;;33.07;42.51
38900;BME280;24660;43.238;26.576;2022-08-18T08:54:59;98957.50;;;34.03;40.89
38900;BME280;24660;43.238;26.576;2022-08-18T08:57:35;98961.25;;;34.17;39.98
38900;BME280;24660;43.238;26.576;2022-08-18T09:00:07;98958.72;;;34.20;39.49
38900;BME280;24660;43.238;26.576;2022-08-18T09:05:07;98965.44;;;33.16;42.14
38900;BME280;24660;43.238;26.576;2022-08-18T09:18:46;98948.53;;;33.17;40.19
38900;BME280;24660;43.238;26.576;2022-08-18T09:21:38;98939.00;;;32.64;42.30
38900;BME280;24660;43.238;26.576;2022-08-18T09:24:21;98944.88;;;33.37;40.17
38900;BME280;24660;43.238;26.576;2022-08-18T09:28:05;98940.22;;;33.22;40.67
38900;BME280;24660;43.238;26.576;2022-08-18T09:35:10;98930.88;;;33.03;41.02
38900;BME280;24660;43.238;26.576;2022-08-18T09:37:49;98926.53;;;33.46;40.08
38900;BME280;24660;43.238;26.576;2022-08-18T09:40:45;98918.78;;;33.43;40.24
38900;BME280;24660;43.238;26.576;2022-08-18T09:43:35;98924.56;;;32.87;40.87
38900;BME280;24660;43.238;26.576;2022-08-18T09:46:05;98923.31;;;33.24;40.01
38900;BME280;24660;43.238;26.576;2022-08-18T09:48:33;98920.47;;;33.83;38.78
38900;BME280;24660;43.238;26.576;2022-08-18T09:51:18;98919.25;;;34.29;37.99
38900;BME280;24660;43.238;26.576;2022-08-18T09:56:13;98922.09;;;33.45;38.42
38900;BME280;24660;43.238;26.576;2022-08-18T10:01:30;98920.91;;;34.01;38.87
38900;BME280;24660;43.238;26.576;2022-08-18T10:04:16;98914.78;;;34.86;36.88
38900;BME280;24660;43.238;26.576;2022-08-18T10:06:45;98908.84;;;34.15;37.23
38900;BME280;24660;43.238;26.576;2022-08-18T10:09:27;98907.56;;;33.63;37.95
38900;BME280;24660;43.238;26.576;2022-08-18T10:14:35;98922.03;;;34.00;37.70
38900;BME280;24660;43.238;26.576;2022-08-18T10:22:49;98914.63;;;35.01;37.56
38900;BME280;24660;43.238;26.576;2022-08-18T10:25:35;98911.53;;;34.26;37.66
38900;BME280;24660;43.238;26.576;2022-08-18T10:28:03;98913.28;;;34.16;37.80
38900;BME280;24660;43.238;26.576;2022-08-18T10:30:44;98914.41;;;34.15;38.36
38900;BME280;24660;43.238;26.576;2022-08-18T10:33:11;98912.69;;;34.19;37.17
38900;BME280;24660;43.238;26.576;2022-08-18T10:35:58;98919.69;;;33.73;37.96
38900;BME280;24660;43.238;26.576;2022-08-18T10:38:37;98918.03;;;33.72;39.06
38900;BME280;24660;43.238;26.576;2022-08-18T10:41:18;98910.13;;;33.55;40.34
38900;BME280;24660;43.238;26.576;2022-08-18T10:43:47;98916.84;;;33.88;39.20
38900;BME280;24660;43.238;26.576;2022-08-18T10:46:21;98906.94;;;34.69;38.54
38900;BME280;24660;43.238;26.576;2022-08-18T10:49:13;98916.91;;;35.79;36.42
38900;BME280;24660;43.238;26.576;2022-08-18T10:54:30;98910.78;;;36.47;35.70
38900;BME280;24660;43.238;26.576;2022-08-18T10:57:11;98912.38;;;35.83;36.23
38900;BME280;24660;43.238;26.576;2022-08-18T10:59:46;98916.94;;;36.12;36.05
38900;BME280;24660;43.238;26.576;2022-08-18T11:05:04;98909.13;;;35.20;36.54
38900;BME280;24660;43.238;26.576;2022-08-18T11:07:31;98896.41;;;35.14;35.77
38900;BME280;24660;43.238;26.576;2022-08-18T11:10:00;98897.84;;;35.30;36.67
38900;BME280;24660;43.238;26.576;2022-08-18T11:15:58;98900.34;;;35.31;36.23
38900;BME280;24660;43.238;26.576;2022-08-18T11:18:30;98899.22;;;34.90;35.90
38900;BME280;24660;43.238;26.576;2022-08-18T11:21:21;98890.84;;;34.13;36.93
38900;BME280;24660;43.238;26.576;2022-08-18T11:26:30;98899.69;;;34.97;37.07
38900;BME280;24660;43.238;26.576;2022-08-18T11:28:57;98894.75;;;35.55;36.28
38900;BME280;24660;43.238;26.576;2022-08-18T11:31:22;98884.28;;;35.47;35.16
38900;BME280;24660;43.238;26.576;2022-08-18T11:33:49;98884.50;;;34.65;36.17
38900;BME280;24660;43.238;26.576;2022-08-18T11:36:15;98885.63;;;34.88;35.25
38900;BME280;24660;43.238;26.576;2022-08-18T11:38:53;98887.47;;;35.40;34.75
38900;BME280;24660;43.238;26.576;2022-08-18T11:41:19;98889.59;;;35.06;35.39
38900;BME280;24660;43.238;26.576;2022-08-18T11:43:56;98890.31;;;34.93;35.88
38900;BME280;24660;43.238;26.576;2022-08-18T11:46:30;98886.81;;;35.06;34.61
38900;BME280;24660;43.238;26.576;2022-08-18T11:48:59;98875.31;;;35.31;33.40
38900;BME280;24660;43.238;26.576;2022-08-18T11:51:29;98881.53;;;35.04;34.29
38900;BME280;24660;43.238;26.576;2022-08-18T11:56:34;98877.22;;;34.45;36.47
38900;BME280;24660;43.238;26.576;2022-08-18T12:03:58;98860.94;;;34.05;36.41
38900;BME280;24660;43.238;26.576;2022-08-18T12:06:27;98852.09;;;34.32;36.82
38900;BME280;24660;43.238;26.576;2022-08-18T12:11:23;98859.16;;;34.48;36.80
38900;BME280;24660;43.238;26.576;2022-08-18T12:13:59;98858.53;;;33.98;36.79
38900;BME280;24660;43.238;26.576;2022-08-18T12:16:38;98846.41;;;33.89;37.32
38900;BME280;24660;43.238;26.576;2022-08-18T12:19:07;98847.50;;;34.46;36.92
38900;BME280;24660;43.238;26.576;2022-08-18T12:21:39;98850.88;;;34.91;36.85
38900;BME280;24660;43.238;26.576;2022-08-18T12:24:09;98840.63;;;35.66;34.83
38900;BME280;24660;43.238;26.576;2022-08-18T12:26:37;98841.19;;;35.82;35.41
38900;BME280;24660;43.238;26.576;2022-08-18T12:29:03;98849.84;;;36.13;34.67
38900;BME280;24660;43.238;26.576;2022-08-18T12:31:28;98845.94;;;36.14;34.62
38900;BME280;24660;43.238;26.576;2022-08-18T12:33:54;98851.78;;;36.73;33.73
38900;BME280;24660;43.238;26.576;2022-08-18T12:36:19;98858.00;;;36.83;33.80
38900;BME280;24660;43.238;26.576;2022-08-18T12:38:45;98861.25;;;37.13;33.53
38900;BME280;24660;43.238;26.576;2022-08-18T12:41:10;98833.59;;;35.88;34.74
38900;BME280;24660;43.238;26.576;2022-08-18T12:43:38;98842.41;;;35.95;35.12
38900;BME280;24660;43.238;26.576;2022-08-18T12:46:04;98845.00;;;36.05;34.86
38900;BME280;24660;43.238;26.576;2022-08-18T12:48:30;98839.72;;;35.15;35.15
38900;BME280;24660;43.238;26.576;2022-08-18T12:50:56;98832.50;;;35.14;35.90
38900;BME280;24660;43.238;26.576;2022-08-18T12:53:23;98838.09;;;37.26;33.34
38900;BME280;24660;43.238;26.576;2022-08-18T12:55:50;98845.56;;;38.51;31.76
38900;BME280;24660;43.238;26.576;2022-08-18T12:58:15;98840.81;;;37.90;31.62
38900;BME280;24660;43.238;26.576;2022-08-18T13:00:41;98832.69;;;37.43;32.25
38900;BME280;24660;43.238;26.576;2022-08-18T13:03:06;98833.34;;;36.91;33.46
38900;BME280;24660;43.238;26.576;2022-08-18T13:05:33;98826.72;;;36.73;33.15
38900;BME280;24660;43.238;26.576;2022-08-18T13:08:01;98834.94;;;37.19;32.49
38900;BME280;24660;43.238;26.576;2022-08-18T13:10:26;98819.88;;;38.10;31.63
38900;BME280;24660;43.238;26.576;2022-08-18T13:12:52;98822.78;;;39.24;29.54
38900;BME280;24660;43.238;26.576;2022-08-18T13:15:18;98817.41;;;38.08;30.25
38900;BME280;24660;43.238;26.576;2022-08-18T13:17:43;98827.81;;;38.47;30.73
38900;BME280;24660;43.238;26.576;2022-08-18T13:20:15;98813.59;;;39.32;29.04
38900;BME280;24660;43.238;26.576;2022-08-18T13:22:41;98811.84;;;38.79;29.50
38900;BME280;24660;43.238;26.576;2022-08-18T13:25:10;98816.19;;;37.47;31.12
38900;BME280;24660;43.238;26.576;2022-08-18T13:27:37;98811.97;;;38.65;29.87
38900;BME280;24660;43.238;26.576;2022-08-18T13:30:06;98820.81;;;39.85;28.45
38900;BME280;24660;43.238;26.576;2022-08-18T13:32:32;98823.59;;;39.15;29.04
38900;BME280;24660;43.238;26.576;2022-08-18T13:34:58;98814.63;;;38.30;31.13
38900;BME280;24660;43.238;26.576;2022-08-18T13:37:24;98812.50;;;37.38;32.26
38900;BME280;24660;43.238;26.576;2022-08-18T13:39:50;98818.88;;;37.02;32.18
38900;BME280;24660;43.238;26.576;2022-08-18T13:42:16;98804.00;;;35.78;33.79
38900;BME280;24660;43.238;26.576;2022-08-18T13:44:42;98819.84;;;37.20;32.97
38900;BME280;24660;43.238;26.576;2022-08-18T13:47:07;98819.66;;;39.86;29.69
38900;BME280;24660;43.238;26.576;2022-08-18T13:49:32;98828.69;;;41.14;28.30
38900;BME280;24660;43.238;26.576;2022-08-18T13:51:58;98824.59;;;41.74;27.38
38900;BME280;24660;43.238;26.576;2022-08-18T13:54:26;98818.47;;;42.51;26.96
38900;BME280;24660;43.238;26.576;2022-08-18T13:56:53;98814.09;;;41.63;26.81
38900;BME280;24660;43.238;26.576;2022-08-18T13:59:19;98811.38;;;41.75;26.57
38900;BME280;24660;43.238;26.576;2022-08-18T14:01:46;98806.63;;;41.55;26.15
38900;BME280;24660;43.238;26.576;2022-08-18T14:04:13;98809.66;;;42.28;25.58
38900;BME280;24660;43.238;26.576;2022-08-18T14:06:39;98801.06;;;43.34;24.14
38900;BME280;24660;43.238;26.576;2022-08-18T14:09:05;98800.69;;;43.08;25.45
38900;BME280;24660;43.238;26.576;2022-08-18T14:11:32;98803.78;;;43.59;24.09
38900;BME280;24660;43.238;26.576;2022-08-18T14:13:59;98796.78;;;41.28;26.68
38900;BME280;24660;43.238;26.576;2022-08-18T14:16:25;98805.66;;;41.30;26.58
38900;BME280;24660;43.238;26.576;2022-08-18T14:18:51;98798.41;;;41.70;26.13
38900;BME280;24660;43.238;26.576;2022-08-18T14:21:33;98793.88;;;40.18;27.12
38900;BME280;24660;43.238;26.576;2022-08-18T14:24:14;98790.50;;;39.87;28.08
38900;BME280;24660;43.238;26.576;2022-08-18T14:26:55;98792.53;;;37.67;30.42
38900;BME280;24660;43.238;26.576;2022-08-18T14:29:20;98789.41;;;36.46;31.98
38900;BME280;24660;43.238;26.576;2022-08-18T14:31:46;98785.44;;;35.92;32.88
38900;BME280;24660;43.238;26.576;2022-08-18T14:34:13;98783.16;;;35.62;33.72
38900;BME280;24660;43.238;26.576;2022-08-18T14:36:39;98789.72;;;35.33;34.11
38900;BME280;24660;43.238;26.576;2022-08-18T14:39:05;98778.72;;;34.86;34.89
38900;BME280;24660;43.238;26.576;2022-08-18T14:41:31;98775.31;;;34.94;34.61